Time;durP1;ratioP1;P1;durP2;ratioP2;P2;SDS_P1;SDS_P2;PMS_P1;PMS_P2;Temp;Humidity;BMP_temperature;BMP_pressure;BME280_temperature;BME280_humidity;BME280_pressure;Samples;Min_cycle;Max_cycle;Signal;HPM_P1;HPM_P2
2021/04/21 00:00:03;;;;;;;;;;;;;;;18.98;68.34;100765.19;5064121;28;1762;-42
2021/04/21 00:02:29;;;;;;;;;;;;;;;18.95;68.45;100764.59;5069126;28;2600;-42
2021/04/21 00:04:57;;;;;;;;;;;;;;;18.99;68.38;100772.22;5064143;28;2302;-42
2021/04/21 00:07:25;;;;;;;;;;;;;;;18.99;68.25;100769.56;5063982;28;1607;-42
2021/04/21 00:09:53;;;;;;;;;;;;;;;18.97;68.28;100762.63;5058843;28;1954;-43
2021/04/21 00:12:20;;;;;;;;;;;;;;;18.97;68.68;100768.84;5061827;28;1979;-42
2021/04/21 00:14:46;;;;;;;;;;;;;;;18.97;68.77;100768.84;5064383;28;1591;-42
2021/04/21 00:17:13;;;;;;;;;;;;;;;18.95;68.75;100775.31;5068912;28;1950;-42
2021/04/21 00:19:40;;;;;;;;;;;;;;;18.95;68.78;100770.81;5062731;28;1817;-42
2021/04/21 00:22:08;;;;;;;;;;;;;;;18.97;68.67;100778.72;5061678;28;1568;-42
2021/04/21 00:24:36;;;;;;;;;;;;;;;18.96;68.56;100772.53;5059993;28;1679;-42
2021/04/21 00:27:03;;;;;;;;;;;;;;;18.95;68.73;100773.50;5062414;28;1719;-42
2021/04/21 00:29:30;;;;;;;;;;;;;;;18.95;68.78;100776.16;5072055;28;1772;-42
2021/04/21 00:31:58;;;;;;;;;;;;;;;18.94;68.71;100773.63;5069633;28;1980;-42
2021/04/21 00:34:25;;;;;;;;;;;;;;;18.94;68.85;100774.50;5061682;28;1927;-42
2021/04/21 00:36:54;;;;;;;;;;;;;;;18.93;68.75;100769.25;5061546;28;1804;-42
2021/04/21 00:39:21;;;;;;;;;;;;;;;18.94;68.53;100778.97;5063042;28;1850;-42
2021/04/21 00:41:53;;;;;;;;;;;;;;;18.93;68.38;100761.22;5062421;28;2242;-42
2021/04/21 00:44:24;;;;;;;;;;;;;;;18.93;68.72;100772.78;5062736;28;1077;-42
2021/04/21 00:46:54;;;;;;;;;;;;;;;18.93;68.45;100758.53;5069919;28;1794;-42
2021/04/21 00:49:23;;;;;;;;;;;;;;;18.94;68.60;100771.81;5062774;28;1743;-42
2021/04/21 00:51:52;;;;;;;;;;;;;;;18.94;68.35;100771.81;5061176;28;1902;-43
2021/04/21 00:54:23;;;;;;;;;;;;;;;18.94;68.50;100774.50;5062865;28;1989;-42
2021/04/21 00:56:57;;;;;;;;;;;;;;;18.93;68.49;100783.50;5062791;28;1643;-42
2021/04/21 00:59:31;;;;;;;;;;;;;;;18.94;68.30;100774.50;5062550;28;1157;-42
2021/04/21 01:01:58;;;;;;;;;;;;;;;18.92;68.70;100775.56;5070186;28;1688;-42
2021/04/21 01:04:24;;;;;;;;;;;;;;;18.90;68.59;100781.09;5064224;28;1688;-42
2021/04/21 01:06:52;;;;;;;;;;;;;;;18.92;68.33;100771.09;5060752;28;1681;-42
2021/04/21 01:09:20;;;;;;;;;;;;;;;18.91;68.24;100780.09;5062468;28;1600;-42
2021/04/21 01:11:48;;;;;;;;;;;;;;;18.89;68.53;100782.06;5065336;28;1902;-42
2021/04/21 01:14:17;;;;;;;;;;;;;;;18.88;68.39;100785.75;5061916;28;1003;-42
2021/04/21 01:16:43;;;;;;;;;;;;;;;18.90;68.59;100783.78;5069409;28;1766;-42
2021/04/21 01:19:11;;;;;;;;;;;;;;;18.88;68.69;100788.41;5064301;28;1500;-42
2021/04/21 01:21:41;;;;;;;;;;;;;;;18.87;68.64;100776.00;5061982;28;1711;-42
2021/04/21 01:24:15;;;;;;;;;;;;;;;18.87;68.20;100784.03;5060100;28;1460;-43
2021/04/21 01:26:54;;;;;;;;;;;;;;;18.88;68.63;100785.75;5061847;28;1449;-42
2021/04/21 01:29:25;;;;;;;;;;;;;;;18.88;68.77;100781.22;5063880;28;1085;-42
2021/04/21 01:31:52;;;;;;;;;;;;;;;18.86;68.70;100769.78;5055610;28;1906;-42
2021/04/21 01:34:21;;;;;;;;;;;;;;;18.86;68.86;100782.31;5055883;28;1933;-42
2021/04/21 01:36:48;;;;;;;;;;;;;;;18.85;68.54;100786.00;5069114;28;1661;-42
2021/04/21 01:39:15;;;;;;;;;;;;;;;18.84;68.74;100785.16;5058897;28;1546;-42
2021/04/21 01:41:43;;;;;;;;;;;;;;;18.83;68.88;100787.97;5057243;28;1762;-42
2021/04/21 01:44:12;;;;;;;;;;;;;;;18.84;69.02;100784.28;5061492;28;1088;-42
2021/04/21 01:46:40;;;;;;;;;;;;;;;18.85;68.57;100783.31;5069857;28;1754;-42
2021/04/21 01:49:10;;;;;;;;;;;;;;;18.83;68.97;100787.97;5058004;28;1707;-42
2021/04/21 01:51:39;;;;;;;;;;;;;;;18.82;68.97;100791.59;5066048;28;1902;-43
2021/04/21 01:54:09;;;;;;;;;;;;;;;18.82;68.82;100791.59;5060977;28;1601;-42
2021/04/21 01:56:39;;;;;;;;;;;;;;;18.81;69.02;100784.56;5060614;28;1031;-42
2021/04/21 01:59:08;;;;;;;;;;;;;;;18.80;69.02;100766.78;5058036;28;1695;-42
2021/04/21 02:01:42;;;;;;;;;;;;;;;18.79;68.79;100776.66;5052008;28;2229;-42
2021/04/21 02:04:14;;;;;;;;;;;;;;;18.82;68.93;100783.56;5060550;28;1748;-42
2021/04/21 02:06:54;;;;;;;;;;;;;;;18.81;68.65;100784.56;5066542;28;1613;-42
2021/04/21 02:09:47;;;;;;;;;;;;;;;18.84;68.78;100789.66;5060900;28;1514;-42
2021/04/21 02:12:20;;;;;;;;;;;;;;;18.79;68.79;100795.41;5048720;23;3949;-60
2021/04/21 02:14:55;;;;;;;;;;;;;;;18.81;68.87;100797.97;5039751;28;1630;-60
2021/04/21 02:17:27;;;;;;;;;;;;;;;18.83;68.60;100782.59;5046182;28;1665;-60
2021/04/21 02:19:56;;;;;;;;;;;;;;;18.80;68.69;100793.56;5042617;28;1475;-60
2021/04/21 02:22:34;;;;;;;;;;;;;;;18.81;68.66;100800.66;5042606;28;1648;-60
2021/04/21 02:25:05;;;;;;;;;;;;;;;18.81;68.95;100806.00;5044291;28;1482;-60
2021/04/21 02:27:34;;;;;;;;;;;;;;;18.78;68.95;100796.38;5041875;28;1634;-60
2021/04/21 02:30:04;;;;;;;;;;;;;;;18.76;68.81;100787.63;5043657;28;1047;-60
2021/04/21 02:32:42;;;;;;;;;;;;;;;18.81;68.78;100795.28;5045642;28;1906;-59
2021/04/21 02:35:11;;;;;;;;;;;;;;;18.99;68.19;100793.66;5042055;28;1395;-60
2021/04/21 02:37:44;;;;;;;;;;;;;;;19.76;66.00;100800.25;5042166;28;1588;-60
2021/04/21 02:40:14;;;;;;;;;;;;;;;20.62;64.05;100792.28;5042552;28;1460;-60
2021/04/21 02:42:46;;;;;;;;;;;;;;;20.82;63.24;100789.56;5054833;28;1510;-60
2021/04/21 02:45:19;;;;;;;;;;;;;;;20.84;62.84;100803.69;5056280;28;1557;-60
2021/04/21 02:47:47;;;;;;;;;;;;;;;20.69;62.99;100810.53;5052217;28;1866;-60
2021/04/21 02:50:19;;;;;;;;;;;;;;;20.70;63.61;100812.22;5045409;28;1347;-60
2021/04/21 02:53:00;;;;;;;;;;;;;;;20.70;62.78;100809.53;5052413;28;1926;-60
2021/04/21 02:55:36;;;;;;;;;;;;;;;20.70;62.96;100821.13;5049456;28;1857;-60
2021/04/21 02:58:06;;;;;;;;;;;;;;;20.63;63.17;100815.50;5042655;28;1640;-60
2021/04/21 03:00:34;;;;;;;;;;;;;;;20.69;63.82;100821.28;5044725;28;1773;-61
2021/04/21 03:03:12;;;;;;;;;;;;;;;20.70;62.95;100828.34;5051808;28;1732;-60
2021/04/21 03:05:41;;;;;;;;;;;;;;;20.69;63.60;100821.28;5043176;28;1540;-60
2021/04/21 03:08:10;;;;;;;;;;;;;;;20.76;62.88;100827.78;5044285;28;1497;-59
2021/04/21 03:10:39;;;;;;;;;;;;;;;20.78;62.84;100817.72;5045336;28;1851;-60
2021/04/21 03:13:08;;;;;;;;;;;;;;;20.81;62.85;100815.59;5044382;28;1902;-60
2021/04/21 03:15:36;;;;;;;;;;;;;;;20.85;62.51;100845.72;5044693;28;1517;-60
2021/04/21 03:18:04;;;;;;;;;;;;;;;20.89;62.36;100832.81;5044221;28;1605;-60
2021/04/21 03:20:33;;;;;;;;;;;;;;;20.92;63.09;100822.63;5045577;28;1453;-60
2021/04/21 03:23:01;;;;;;;;;;;;;;;20.92;62.29;100832.53;5046339;28;1529;-61
2021/04/21 03:25:30;;;;;;;;;;;;;;;20.92;62.15;100829.84;5044223;28;1480;-60
2021/04/21 03:27:58;;;;;;;;;;;;;;;21.00;62.11;100835.34;5045122;28;1881;-60
2021/04/21 03:30:26;;;;;;;;;;;;;;;20.98;62.03;100832.78;5048128;28;934;-60
2021/04/21 03:32:54;;;;;;;;;;;;;;;21.02;61.84;100834.19;5045129;28;1906;-59
2021/04/21 03:35:22;;;;;;;;;;;;;;;21.01;61.92;100843.25;5046732;28;1613;-60
2021/04/21 03:37:52;;;;;;;;;;;;;;;21.06;61.69;100840.13;5044360;28;1630;-60
2021/04/21 03:40:19;;;;;;;;;;;;;;;21.05;62.65;100844.66;5045120;28;1675;-60
2021/04/21 03:42:45;;;;;;;;;;;;;;;21.13;61.79;100859.19;5042152;28;1570;-60
2021/04/21 03:45:13;;;;;;;;;;;;;;;21.11;61.67;100853.09;5044000;28;1051;-60
2021/04/21 03:47:39;;;;;;;;;;;;;;;21.14;62.27;100861.75;5040753;28;1717;-60
2021/04/21 03:50:06;;;;;;;;;;;;;;;21.14;61.87;100855.53;5045571;28;1574;-61
2021/04/21 03:52:34;;;;;;;;;;;;;;;21.14;61.96;100855.53;5044792;28;1922;-60
2021/04/21 03:55:01;;;;;;;;;;;;;;;21.06;62.54;100865.16;5044610;28;1632;-60
2021/04/21 03:57:29;;;;;;;;;;;;;;;20.56;63.79;100868.06;5041917;28;1381;-60
2021/04/21 03:59:58;;;;;;;;;;;;;;;20.16;64.96;100869.09;5040674;28;1385;-61
2021/04/21 04:02:26;;;;;;;;;;;;;;;19.97;64.76;100879.78;5040463;28;1764;-60
2021/04/21 04:04:56;;;;;;;;;;;;;;;19.84;65.12;100880.06;5044467;28;1428;-60
2021/04/21 04:07:25;;;;;;;;;;;;;;;19.78;65.68;100886.00;5044619;28;1480;-59
2021/04/21 04:09:51;;;;;;;;;;;;;;;19.74;66.06;100863.94;5034585;28;1573;-60
2021/04/21 04:12:19;;;;;;;;;;;;;;;19.82;65.53;100874.00;5042135;28;1910;-60
2021/04/21 04:14:47;;;;;;;;;;;;;;;20.15;64.34;100878.13;5046265;28;1058;-60
2021/04/21 04:17:15;;;;;;;;;;;;;;;20.98;61.65;100881.19;5040920;28;1583;-60
2021/04/21 04:19:43;;;;;;;;;;;;;;;21.67;59.23;100878.25;5044017;28;1633;-60
2021/04/21 04:22:12;;;;;;;;;;;;;;;22.16;58.84;100876.94;5037468;28;1492;-60
2021/04/21 04:24:41;;;;;;;;;;;;;;;22.37;57.98;100886.56;5041745;28;1496;-60
2021/04/21 04:27:08;;;;;;;;;;;;;;;21.83;58.64;100887.34;5042556;28;1543;-60
2021/04/21 04:29:35;;;;;;;;;;;;;;;21.07;61.79;100879.47;5038864;28;1484;-60
2021/04/21 04:32:03;;;;;;;;;;;;;;;20.35;64.05;100894.25;5029472;28;11982;-59
2021/04/21 04:34:29;;;;;;;;;;;;;;;20.09;64.58;100902.84;5046199;28;1586;-56
2021/04/21 04:36:56;;;;;;;;;;;;;;;20.00;64.64;100906.38;5037385;28;1468;-61
2021/04/21 04:39:23;;;;;;;;;;;;;;;20.32;64.63;100916.03;5043183;28;1515;-62
2021/04/21 04:41:50;;;;;;;;;;;;;;;21.17;60.75;100906.31;5042014;28;1507;-62
2021/04/21 04:44:17;;;;;;;;;;;;;;;21.64;57.35;100901.75;5041373;28;1416;-59
2021/04/21 04:46:49;;;;;;;;;;;;;;;22.23;57.28;100915.69;5036055;28;1599;-59
2021/04/21 04:49:17;;;;;;;;;;;;;;;22.07;57.70;100920.94;5041877;28;1577;-59
2021/04/21 04:51:45;;;;;;;;;;;;;;;21.45;58.85;100901.88;5038276;28;1979;-57
2021/04/21 04:54:12;;;;;;;;;;;;;;;21.02;60.53;100914.84;5042788;28;1597;-59
2021/04/21 04:56:38;;;;;;;;;;;;;;;20.82;61.69;100929.31;5043320;28;1059;-59
2021/04/21 04:59:05;;;;;;;;;;;;;;;20.80;60.85;100931.31;5036881;28;1755;-58
2021/04/21 05:01:35;;;;;;;;;;;;;;;20.81;60.73;100924.91;5032098;28;1635;-59
2021/04/21 05:04:02;;;;;;;;;;;;;;;20.74;61.41;100937.25;5031924;28;1313;-59
2021/04/21 05:06:30;;;;;;;;;;;;;;;20.72;59.81;100940.06;5038525;28;1491;-58
2021/04/21 05:08:57;;;;;;;;;;;;;;;20.69;58.93;100939.50;5029725;28;1437;-59
2021/04/21 05:11:26;;;;;;;;;;;;;;;20.59;59.73;100939.50;5043625;28;1981;-58
2021/04/21 05:13:52;;;;;;;;;;;;;;;20.69;60.03;100951.13;5038830;28;1587;-58
2021/04/21 05:16:37;;;;;;;;;;;;;;;20.56;59.22;100953.22;5032191;28;1579;-59
2021/04/21 05:19:21;;;;;;;;;;;;;;;20.36;56.95;100944.28;5043172;28;1617;-59
2021/04/21 05:22:20;;;;;;;;;;;;;;;20.18;58.26;100949.50;5045139;28;1535;-62
2021/04/21 05:25:01;;;;;;;;;;;;;;;20.29;57.13;100940.47;5048769;28;1405;-59
2021/04/21 05:27:43;;;;;;;;;;;;;;;20.09;59.24;100948.47;5041995;28;1426;-59
2021/04/21 05:30:30;;;;;;;;;;;;;;;19.75;59.22;100937.22;5038806;28;1590;-58
2021/04/21 05:33:14;;;;;;;;;;;;;;;19.60;61.44;100936.75;5009987;28;1938;-60
2021/04/21 05:35:55;;;;;;;;;;;;;;;19.51;60.68;100934.84;5047304;28;1615;-60
2021/04/21 05:38:40;;;;;;;;;;;;;;;19.52;59.81;100941.91;5037246;28;1618;-60
2021/04/21 05:41:21;;;;;;;;;;;;;;;19.46;60.92;100946.00;5018217;28;1982;-59
2021/04/21 05:44:20;;;;;;;;;;;;;;;19.35;59.72;100946.06;4985510;28;1653;-60
2021/04/21 05:47:08;;;;;;;;;;;;;;;19.28;60.72;100943.09;5044078;28;1575;-59
2021/04/21 05:49:59;;;;;;;;;;;;;;;19.26;59.54;100956.63;5032708;28;1635;-59
2021/04/21 05:52:33;;;;;;;;;;;;;;;19.24;58.22;100947.03;5041149;28;1902;-59
2021/04/21 05:55:19;;;;;;;;;;;;;;;19.27;60.97;100957.47;5043041;28;1498;-60
2021/04/21 05:58:15;;;;;;;;;;;;;;;19.26;61.38;100956.63;5038557;28;1445;-60
2021/04/21 06:00:59;;;;;;;;;;;;;;;19.41;61.73;100961.63;4957512;28;1152;-59
2021/04/21 06:03:27;;;;;;;;;;;;;;;19.44;61.32;100948.81;5025970;28;1761;-59
2021/04/21 06:06:00;;;;;;;;;;;;;;;19.44;61.65;100958.69;5033334;28;1753;-60
2021/04/21 06:08:28;;;;;;;;;;;;;;;19.39;61.79;100956.38;5047113;28;1708;-59
2021/04/21 06:10:54;;;;;;;;;;;;;;;19.37;61.86;100958.34;5038071;28;1705;-59
2021/04/21 06:13:25;;;;;;;;;;;;;;;19.37;62.11;100965.56;5039413;28;1910;-59
2021/04/21 06:15:51;;;;;;;;;;;;;;;19.36;62.21;100956.69;5042411;28;1480;-60
2021/04/21 06:18:17;;;;;;;;;;;;;;;19.37;62.43;100966.41;5039055;28;1747;-59
2021/04/21 06:20:45;;;;;;;;;;;;;;;19.35;62.36;100965.69;5044434;28;1589;-59
2021/04/21 06:23:11;;;;;;;;;;;;;;;19.37;62.63;100971.75;5037563;28;1457;-59
2021/04/21 06:25:39;;;;;;;;;;;;;;;19.32;61.33;100962.41;5033881;28;1425;-59
2021/04/21 06:28:09;;;;;;;;;;;;;;;19.36;62.93;100967.41;5039021;28;1569;-59
2021/04/21 06:30:35;;;;;;;;;;;;;;;19.41;66.01;100964.31;5034406;28;1450;-59
2021/04/21 06:33:02;;;;;;;;;;;;;;;19.32;64.55;100965.97;5036840;28;1969;-59
2021/04/21 06:35:31;;;;;;;;;;;;;;;19.45;70.49;100953.16;5037910;28;1493;-60
2021/04/21 06:37:58;;;;;;;;;;;;;;;19.58;68.54;100971.75;5045005;28;1456;-59
2021/04/21 06:40:26;;;;;;;;;;;;;;;19.64;65.35;100981.09;5037244;28;1460;-60
2021/04/21 06:42:52;;;;;;;;;;;;;;;19.68;66.23;100978.00;5034902;28;1551;-60
2021/04/21 06:45:22;;;;;;;;;;;;;;;19.76;66.56;100996.13;5031291;28;1724;-59
2021/04/21 06:47:48;;;;;;;;;;;;;;;19.80;67.46;100986.84;5033508;28;1547;-62
2021/04/21 06:50:16;;;;;;;;;;;;;;;19.78;66.63;100991.47;5037490;28;1519;-73
2021/04/21 06:52:43;;;;;;;;;;;;;;;19.76;64.71;100990.78;5041478;28;1969;-67
2021/04/21 06:55:11;;;;;;;;;;;;;;;19.74;64.70;100992.75;5038770;28;1427;-66
2021/04/21 06:57:37;;;;;;;;;;;;;;;19.78;63.11;101010.28;5035406;28;1595;-55
2021/04/21 07:00:10;;;;;;;;;;;;;;;19.73;63.61;101001.75;5030871;28;1151;-55
2021/04/21 07:02:41;;;;;;;;;;;;;;;19.71;64.75;101011.78;5032805;28;1529;-55
2021/04/21 07:05:25;;;;;;;;;;;;;;;19.75;63.53;100999.78;5030298;28;1551;-69
2021/04/21 07:07:51;;;;;;;;;;;;;;;19.80;61.81;101000.25;5036056;28;1553;-71
2021/04/21 07:10:18;;;;;;;;;;;;;;;19.90;62.08;101007.50;5030294;28;1449;-67
2021/04/21 07:12:45;;;;;;;;;;;;;;;19.95;62.83;101005.25;5011453;28;2003;-67
2021/04/21 07:15:12;;;;;;;;;;;;;;;19.88;63.28;101020.22;5010303;28;1268;-65
2021/04/21 07:17:38;;;;;;;;;;;;;;;19.89;62.68;101017.38;5014153;28;1546;-70
2021/04/21 07:20:07;;;;;;;;;;;;;;;19.90;63.58;101015.56;5014730;28;1537;-68
2021/04/21 07:22:33;;;;;;;;;;;;;;;19.99;62.64;101022.78;5012366;28;1466;-61
2021/04/21 07:24:59;;;;;;;;;;;;;;;19.98;62.10;101016.56;5019687;28;1544;-61
2021/04/21 07:27:26;;;;;;;;;;;;;;;20.00;63.77;101022.66;5015461;28;1545;-61
2021/04/21 07:29:52;;;;;;;;;;;;;;;20.00;61.62;101030.69;5025272;28;1351;-61
2021/04/21 07:32:19;;;;;;;;;;;;;;;20.00;61.99;101025.31;5013210;28;1919;-73
2021/04/21 07:34:56;;;;;;;;;;;;;;;20.00;62.93;101029.84;5018233;28;1509;-65
2021/04/21 07:37:31;;;;;;;;;;;;;;;20.00;62.55;101019.97;5019900;28;1598;-61
2021/04/21 07:39:57;;;;;;;;;;;;;;;20.03;62.69;101034.94;5013641;28;1636;-64
2021/04/21 07:42:23;;;;;;;;;;;;;;;19.99;61.92;101028.13;5023070;28;1604;-64
2021/04/21 07:44:51;;;;;;;;;;;;;;;19.95;61.51;101042.81;5014203;28;1106;-67
2021/04/21 07:47:17;;;;;;;;;;;;;;;19.95;61.19;101021.34;5011764;28;1467;-67
2021/04/21 07:49:45;;;;;;;;;;;;;;;19.93;61.36;101028.69;5020685;28;1600;-64
2021/04/21 07:52:21;;;;;;;;;;;;;;;19.94;61.72;101031.25;5006876;28;1914;-67
2021/04/21 07:54:47;;;;;;;;;;;;;;;19.92;62.63;101027.00;5018822;28;1694;-62
2021/04/21 07:57:16;;;;;;;;;;;;;;;19.91;62.46;101041.38;5018506;28;1532;-67
2021/04/21 07:59:43;;;;;;;;;;;;;;;19.93;62.35;101036.75;5020308;28;1309;-60
2021/04/21 08:02:11;;;;;;;;;;;;;;;19.98;62.35;101026.47;5015396;28;1536;-69
2021/04/21 08:04:48;;;;;;;;;;;;;;;20.03;62.56;101038.50;5017971;28;1618;-68
2021/04/21 08:07:24;;;;;;;;;;;;;;;20.11;62.86;101048.53;5012659;28;1598;-60
2021/04/21 08:09:50;;;;;;;;;;;;;;;20.06;63.26;101054.31;5022754;28;1614;-61
2021/04/21 08:12:17;;;;;;;;;;;;;;;20.03;63.77;101034.94;5036656;28;1981;-69
2021/04/21 08:14:44;;;;;;;;;;;;;;;20.02;64.22;101049.34;5033665;28;1600;-70
2021/04/21 08:17:12;;;;;;;;;;;;;;;20.08;64.76;101043.44;5031354;28;1504;-70
2021/04/21 08:19:39;;;;;;;;;;;;;;;20.11;64.45;101035.09;5031508;28;1603;-61
2021/04/21 08:22:06;;;;;;;;;;;;;;;20.04;64.98;101042.84;5033514;28;1610;-70
2021/04/21 08:24:39;;;;;;;;;;;;;;;19.99;66.43;101050.47;5038873;28;1575;-61
2021/04/21 08:27:06;;;;;;;;;;;;;;;19.99;66.22;101049.63;5043108;28;1439;-61
2021/04/21 08:29:32;;;;;;;;;;;;;;;19.97;66.22;101043.53;5035975;28;1559;-70
2021/04/21 08:31:58;;;;;;;;;;;;;;;19.95;65.53;101053.56;5034637;28;1965;-61
2021/04/21 08:34:25;;;;;;;;;;;;;;;19.94;65.25;101058.09;5032832;28;1516;-72
2021/04/21 08:36:51;;;;;;;;;;;;;;;19.96;65.50;101029.28;5033649;28;1524;-70
2021/04/21 08:39:17;;;;;;;;;;;;;;;19.96;67.24;101042.69;5044815;28;1583;-62
2021/04/21 08:41:44;;;;;;;;;;;;;;;19.95;65.68;101043.66;5036849;28;1404;-61
2021/04/21 08:44:11;;;;;;;;;;;;;;;19.96;66.82;101050.75;5039608;28;1238;-62
2021/04/21 08:46:37;;;;;;;;;;;;;;;19.93;65.35;101037.56;5035733;28;1445;-61
2021/04/21 08:49:04;;;;;;;;;;;;;;;19.91;65.11;101054.81;5032726;28;1484;-62
2021/04/21 08:51:32;;;;;;;;;;;;;;;19.80;65.48;101055.75;5034634;28;1397;-62
2021/04/21 08:54:02;;;;;;;;;;;;;;;19.81;65.25;101035.97;5035337;28;1913;-69
2021/04/21 08:56:30;;;;;;;;;;;;;;;19.80;64.54;101040.50;5036331;28;1191;-62
2021/04/21 08:58:56;;;;;;;;;;;;;;;19.81;63.92;101054.75;5034563;28;1611;-60
2021/04/21 09:01:23;;;;;;;;;;;;;;;19.80;63.74;101037.81;5025792;28;1584;-70
2021/04/21 09:03:50;;;;;;;;;;;;;;;19.81;61.84;101042.19;5038701;28;1577;-62
2021/04/21 09:06:17;;;;;;;;;;;;;;;19.84;61.03;101041.09;5030075;28;1432;-62
2021/04/21 09:08:46;;;;;;;;;;;;;;;19.81;63.08;101036.81;5034106;28;1576;-62
2021/04/21 09:11:12;;;;;;;;;;;;;;;19.81;63.05;101042.19;5036445;28;1544;-71
2021/04/21 09:13:38;;;;;;;;;;;;;;;19.83;63.09;101040.22;5035401;28;1993;-69
2021/04/21 09:16:04;;;;;;;;;;;;;;;19.84;63.28;101041.09;5014729;28;1406;-62
2021/04/21 09:18:31;;;;;;;;;;;;;;;19.85;61.62;101043.63;5037551;28;991;-69
2021/04/21 09:20:57;;;;;;;;;;;;;;;19.83;62.35;101034.84;5036550;28;1441;-62
2021/04/21 09:23:23;;;;;;;;;;;;;;;19.79;62.06;101040.63;5033850;28;1455;-64
2021/04/21 09:25:52;;;;;;;;;;;;;;;19.66;56.50;101028.25;5033693;28;1567;-64
2021/04/21 09:28:19;;;;;;;;;;;;;;;19.63;54.57;101033.03;5039146;28;1570;-64
2021/04/21 09:30:51;;;;;;;;;;;;;;;19.58;54.86;101029.91;5027789;28;1571;-62
2021/04/21 09:33:17;;;;;;;;;;;;;;;19.60;55.41;101030.63;5035538;28;1977;-61
2021/04/21 09:35:44;;;;;;;;;;;;;;;19.48;52.89;101030.69;5041794;28;1598;-67
2021/04/21 09:38:11;;;;;;;;;;;;;;;19.44;53.17;101031.09;5036726;28;1571;-67
2021/04/21 09:40:42;;;;;;;;;;;;;;;19.44;52.68;101034.63;5035265;28;1574;-64
2021/04/21 09:43:10;;;;;;;;;;;;;;;19.36;52.71;101039.81;5035583;28;1583;-62
2021/04/21 09:45:37;;;;;;;;;;;;;;;19.40;52.65;101032.34;5036375;28;1674;-65
2021/04/21 09:48:05;;;;;;;;;;;;;;;19.46;52.43;101034.50;5041593;28;1551;-66
2021/04/21 09:50:32;;;;;;;;;;;;;;;19.39;54.64;101026.13;5036792;28;1556;-65
2021/04/21 09:52:58;;;;;;;;;;;;;;;19.46;54.96;101027.31;5037842;28;1906;-62
2021/04/21 09:55:29;;;;;;;;;;;;;;;19.45;54.40;101028.25;5038383;28;1501;-68
2021/04/21 09:57:55;;;;;;;;;;;;;;;19.52;56.53;101030.41;5032096;28;1567;-61
2021/04/21 10:00:25;;;;;;;;;;;;;;;19.57;55.67;101025.53;5036365;28;1696;-69
2021/04/21 10:02:52;;;;;;;;;;;;;;;19.57;55.37;101025.53;5030247;28;1523;-60
2021/04/21 10:05:22;;;;;;;;;;;;;;;19.59;56.13;101028.91;5036200;28;1516;-70
2021/04/21 10:08:08;;;;;;;;;;;;;;;19.58;56.84;101020.03;5040020;28;1527;-69
2021/04/21 10:10:34;;;;;;;;;;;;;;;19.58;56.70;101008.47;5031491;28;1691;-72
2021/04/21 10:13:11;;;;;;;;;;;;;;;19.56;56.95;101032.72;5037959;28;1985;-60
2021/04/21 10:15:38;;;;;;;;;;;;;;;19.53;57.09;101024.94;5038543;28;1048;-61
2021/04/21 10:18:04;;;;;;;;;;;;;;;19.57;55.85;101017.47;5037115;28;1485;-60
2021/04/21 10:20:30;;;;;;;;;;;;;;;19.57;57.94;101025.53;5037738;28;1546;-59
2021/04/21 10:22:57;;;;;;;;;;;;;;;19.59;58.05;101021.72;5032251;28;1597;-61
2021/04/21 10:25:23;;;;;;;;;;;;;;;19.60;57.65;101022.59;5035262;28;1440;-61
2021/04/21 10:27:50;;;;;;;;;;;;;;;19.58;56.26;101014.66;5035066;28;1543;-60
2021/04/21 10:30:17;;;;;;;;;;;;;;;19.60;57.79;101006.50;5038483;28;1511;-59
2021/04/21 10:32:44;;;;;;;;;;;;;;;19.58;57.40;101013.81;5033075;28;1910;-60
2021/04/21 10:35:11;;;;;;;;;;;;;;;19.59;56.46;101004.78;5028624;28;1507;-60
2021/04/21 10:37:37;;;;;;;;;;;;;;;19.62;57.94;101016.09;5023366;28;1476;-67
2021/04/21 10:40:04;;;;;;;;;;;;;;;19.63;58.06;101003.53;5030881;28;1429;-60
2021/04/21 10:42:45;;;;;;;;;;;;;;;19.66;57.70;101014.00;5026838;28;1548;-65
2021/04/21 10:45:16;;;;;;;;;;;;;;;19.65;58.95;101004.22;5037422;28;1513;-59
2021/04/21 10:47:46;;;;;;;;;;;;;;;19.65;56.26;100999.72;5036886;28;1578;-58
2021/04/21 10:50:13;;;;;;;;;;;;;;;19.63;58.28;100993.63;5036706;28;1535;-58
2021/04/21 10:52:39;;;;;;;;;;;;;;;19.65;59.93;100990.81;5033407;28;1910;-59
2021/04/21 10:55:24;;;;;;;;;;;;;;;19.62;59.64;100996.47;5039877;28;1480;-63
2021/04/21 10:57:57;;;;;;;;;;;;;;;19.62;60.46;100983.91;5031311;28;1425;-60
2021/04/21 11:00:27;;;;;;;;;;;;;;;19.65;59.45;100985.47;5022859;28;1621;-59
2021/04/21 11:03:14;;;;;;;;;;;;;;;19.64;60.45;100995.34;5036844;28;1575;-59
2021/04/21 11:05:46;;;;;;;;;;;;;;;19.62;60.47;100986.59;5032613;28;2407;-59
2021/04/21 11:08:14;;;;;;;;;;;;;;;19.60;60.65;100985.03;5044505;28;1363;-59
2021/04/21 11:10:42;;;;;;;;;;;;;;;19.63;60.39;100971.31;5043509;28;1449;-59
2021/04/21 11:13:08;;;;;;;;;;;;;;;19.64;59.99;100976.56;5046554;28;1902;-58
2021/04/21 11:15:36;;;;;;;;;;;;;;;19.66;60.90;100985.31;5042221;28;1981;-59
2021/04/21 11:18:24;;;;;;;;;;;;;;;19.65;61.24;100978.25;5047408;28;1533;-60
2021/04/21 11:20:51;;;;;;;;;;;;;;;19.65;61.05;100977.41;5039330;28;1599;-59
2021/04/21 11:23:36;;;;;;;;;;;;;;;19.65;61.29;100961.31;5034303;28;1618;-61
2021/04/21 11:26:17;;;;;;;;;;;;;;;19.66;61.86;100968.38;5041087;28;1500;-60
2021/04/21 11:28:55;;;;;;;;;;;;;;;19.66;61.91;100979.13;5034850;28;1553;-57
2021/04/21 11:31:22;;;;;;;;;;;;;;;19.67;62.07;100967.38;5035918;28;1298;-58
2021/04/21 11:33:49;;;;;;;;;;;;;;;19.66;61.95;100963.03;5030150;28;1907;-58
2021/04/21 11:36:33;;;;;;;;;;;;;;;19.76;61.87;100961.25;5040210;28;1282;-57
2021/04/21 11:39:00;;;;;;;;;;;;;;;19.67;62.38;100944.09;5036049;28;1581;-58
2021/04/21 11:41:38;;;;;;;;;;;;;;;19.62;59.62;100957.06;5033021;28;1493;-58
2021/04/21 11:44:04;;;;;;;;;;;;;;;19.62;60.28;100961.59;5039509;28;1780;-58
2021/04/21 11:46:45;;;;;;;;;;;;;;;19.62;60.76;100956.22;5034554;28;1552;-58
2021/04/21 11:49:11;;;;;;;;;;;;;;;19.59;61.55;100951.97;5017624;28;2082;-58
2021/04/21 11:51:45;;;;;;;;;;;;;;;19.62;60.96;100958.91;5029281;28;1491;-57
2021/04/21 11:54:12;;;;;;;;;;;;;;;19.60;60.79;100950.16;5024231;28;1931;-58
2021/04/21 11:56:38;;;;;;;;;;;;;;;19.58;62.09;100952.13;5024450;28;1592;-58
2021/04/21 11:59:06;;;;;;;;;;;;;;;19.58;61.68;100952.97;5028719;28;1433;-58
2021/04/21 12:01:32;;;;;;;;;;;;;;;19.58;61.56;100957.50;5026248;28;1497;-58
2021/04/21 12:03:58;;;;;;;;;;;;;;;19.58;61.98;100954.81;5024966;28;1532;-57
2021/04/21 12:06:24;;;;;;;;;;;;;;;19.60;62.25;100958.19;5039483;28;1455;-58
2021/04/21 12:08:50;;;;;;;;;;;;;;;19.60;62.16;100952.84;5034253;28;1288;-58
2021/04/21 12:11:23;;;;;;;;;;;;;;;19.62;61.99;100961.59;5034541;28;1437;-59
2021/04/21 12:13:49;;;;;;;;;;;;;;;19.60;61.95;100958.19;5031067;28;1977;-68
2021/04/21 12:16:18;;;;;;;;;;;;;;;19.59;62.27;100960.00;5023858;28;1432;-60
2021/04/21 12:18:45;;;;;;;;;;;;;;;19.61;62.41;100965.25;5028847;28;1818;-68
2021/04/21 12:21:22;;;;;;;;;;;;;;;19.57;62.49;100959.28;5038340;28;1251;-59
2021/04/21 12:23:48;;;;;;;;;;;;;;;19.57;62.57;100958.47;5029362;28;1271;-61
2021/04/21 12:26:18;;;;;;;;;;;;;;;19.56;62.25;100946.03;5036666;28;1499;-61
2021/04/21 12:28:46;;;;;;;;;;;;;;;19.52;60.08;100949.94;5028496;28;1763;-59
2021/04/21 12:31:13;;;;;;;;;;;;;;;19.57;58.58;100955.78;5026744;28;1504;-61
2021/04/21 12:33:39;;;;;;;;;;;;;;;19.61;59.49;100954.53;5047116;28;1910;-65
2021/04/21 12:36:07;;;;;;;;;;;;;;;19.58;60.58;100949.44;5032719;28;1488;-62
2021/04/21 12:38:34;;;;;;;;;;;;;;;19.57;61.59;100947.72;5044516;28;1556;-63
2021/04/21 12:41:01;;;;;;;;;;;;;;;19.56;62.31;100948.72;5041737;28;1500;-61
2021/04/21 12:43:28;;;;;;;;;;;;;;;19.55;61.69;100950.53;5046622;28;1483;-68
2021/04/21 12:46:10;;;;;;;;;;;;;;;19.53;61.75;100938.25;5037464;28;1462;-65
2021/04/21 12:48:44;;;;;;;;;;;;;;;19.58;59.86;100938.72;5039989;28;1199;-60
2021/04/21 12:51:16;;;;;;;;;;;;;;;19.57;60.36;100950.41;5039161;28;1111;-59
2021/04/21 12:53:42;;;;;;;;;;;;;;;19.53;56.75;100940.94;5033751;28;1910;-65
2021/04/21 12:56:10;;;;;;;;;;;;;;;19.58;55.75;100938.72;5036249;28;1670;-67
2021/04/21 12:58:37;;;;;;;;;;;;;;;19.56;54.99;100946.88;5033954;28;1503;-63
2021/04/21 13:01:12;;;;;;;;;;;;;;;19.51;55.44;100927.66;5029897;28;1473;-60